Aérodrome :
LOGIN :

S'inscrire | Disclaimer

   EN    FR    IT 

 










Légende :    VFR   VFR Marginal   IFR   IFR Intensif   IFR Très Intensif
Visi : 
Plafond : 
>= 8 km
>= 3000ft
5 à 8 km
1000 à 3000 ft
1500m à 5 km
500 à 1000 ft
800 à 1500m
200 à 500 ft
< 800m
< 200 ft
Symboles :   Orages  Brouillard  Fortes neiges  Fortes précipitations  Vent > 20 kt
SIGMETs :   Divers  Orages  Givrage  Turbulence  Onde Orograph.  Cendres Volcan.






- Altitude de l'aérodrome : 268 ft
- Code IATA : BFS


EGAA - Belfast Aldergrove

DERNIER METAR :
  • 030120Z 25010KT 9999 FEW031 OVC048 05/03 Q1015

METARs EXPIRÉS :
  • 022320Z 25007KT CAVOK 05/03 Q1015
  • 022250Z 27008KT 9999 FEW018 SCT034 05/03 Q1015

TAF TAF EGAA
Valide du 03 à 00h jusqu'au 04 à 00h UTC


022256Z 0300/0324 26005KT 9999 FEW015 SCT030
PROB30
TEMPO 0300/0307 8000 -SHRA BKN014
TEMPO 0307/0312 7000 SHRA BKN012
PROB30
TEMPO 0309/0311 BKN008
PROB40
TEMPO 0312/0319 7000 SHRA



MET'MAP, la Météo Aéronautique d'un coup d'oeil ! - Copyright ORBIFLY Décembre 2007 - Disclaimer

ORBIFLY MET'MAP TEAM :

Programmation & Développement : Alexandra Zaïnal
Sur une idée originale de : Baudouin d'Aumeries
Assistance à la programmation : Marc-Olivier Méhu
Soutien technique & logistique : Manuel Goepfert

Contact : metmap@orbifly.com




SOURCES & CREDITS :

   NOAA